CMB831 Details

Departure: Norfolk Naval Station (Chambers Field) (KNGU)
Arrival: Keflavík International Airport (BIKF)
Route: SBY J79 JFK J37 ALB J563 HO PORGY 5950N N6140 EPENI ELDIS ELDIS2M
Notes: USTRANSCOM CONTRACT FLIGHT


Current Weather Information
KNGU 212159Z 03012KT 10SM FEW090 BKN300 22/13 A3003 RMK AO2 SLP168 T02170128
BIKF 212230Z 06005KT 9999 SCT028 BKN055 08/07 Q1024